Time;durP1;ratioP1;P1;durP2;ratioP2;P2;SDS_P1;SDS_P2;PMS_P1;PMS_P2;Temp;Humidity;BMP_temperature;BMP_pressure;BME280_temperature;BME280_humidity;BME280_pressure;Samples;Min_cycle;Max_cycle;Signal;HPM_P1;HPM_P2
2023/10/30 00:01:49;;;;;;;2.47;1.63;;;22.70;41.80;;;;;;6119539;23;20274;-37
2023/10/30 00:04:16;;;;;;;1.60;1.50;;;22.80;41.90;;;;;;6122786;23;20270;-39
2023/10/30 00:06:42;;;;;;;2.00;1.50;;;22.80;41.80;;;;;;6122436;23;20262;-40
2023/10/30 00:09:09;;;;;;;1.35;1.25;;;22.80;41.80;;;;;;6124034;23;20184;-37
2023/10/30 00:11:36;;;;;;;2.38;1.40;;;22.80;41.80;;;;;;6123924;23;20206;-38
2023/10/30 00:14:04;;;;;;;3.40;1.52;;;22.80;41.80;;;;;;6122983;23;20510;-37
2023/10/30 00:16:30;;;;;;;2.33;1.42;;;22.80;41.80;;;;;;6122075;23;20184;-39
2023/10/30 00:18:58;;;;;;;1.95;1.30;;;22.80;41.90;;;;;;6119582;23;20254;-39
2023/10/30 00:21:25;;;;;;;3.58;1.30;;;22.80;41.90;;;;;;6121861;23;20210;-39
2023/10/30 00:23:51;;;;;;;3.55;1.40;;;22.80;41.80;;;;;;6124026;23;20250;-38
2023/10/30 00:26:18;;;;;;;2.97;1.45;;;22.80;41.80;;;;;;6123594;23;20569;-41
2023/10/30 00:28:44;;;;;;;2.05;1.40;;;22.80;41.80;;;;;;6122232;23;20255;-39
2023/10/30 00:31:10;;;;;;;1.65;1.42;;;22.80;41.90;;;;;;6123063;23;20203;-37
2023/10/30 00:33:37;;;;;;;2.08;1.50;;;22.80;41.80;;;;;;6123331;23;20596;-38
2023/10/30 00:36:03;;;;;;;2.50;1.50;;;22.80;41.80;;;;;;6120903;23;20182;-37
2023/10/30 00:38:30;;;;;;;2.20;1.63;;;22.80;41.80;;;;;;6121595;23;20707;-38
2023/10/30 00:40:57;;;;;;;1.85;1.40;;;22.80;41.90;;;;;;6124114;23;20279;-38
2023/10/30 00:43:23;;;;;;;1.52;1.42;;;22.70;41.80;;;;;;6123754;23;20196;-39
2023/10/30 00:45:49;;;;;;;1.95;1.50;;;22.70;41.80;;;;;;6123083;23;20259;-40
2023/10/30 00:48:16;;;;;;;2.42;1.67;;;22.70;41.80;;;;;;6123509;23;20186;-38
2023/10/30 00:50:42;;;;;;;2.30;1.50;;;22.70;41.80;;;;;;6125511;23;20270;-39
2023/10/30 00:53:09;;;;;;;1.38;1.20;;;22.80;41.80;;;;;;6123854;23;20267;-38
2023/10/30 00:55:35;;;;;;;2.85;1.58;;;22.80;41.80;;;;;;6126078;23;20186;-40
2023/10/30 00:58:02;;;;;;;2.28;1.52;;;22.80;41.80;;;;;;6123815;23;20344;-37
2023/10/30 01:00:28;;;;;;;1.80;1.30;;;22.80;41.80;;;;;;6125234;23;20262;-40
2023/10/30 01:02:54;;;;;;;1.77;1.63;;;22.80;41.90;;;;;;6125365;23;20212;-38
2023/10/30 01:05:21;;;;;;;3.58;1.50;;;22.70;41.80;;;;;;6125654;23;20263;-39
2023/10/30 01:07:47;;;;;;;2.78;1.55;;;22.70;41.80;;;;;;6124601;23;20255;-39
2023/10/30 01:10:14;;;;;;;2.38;1.70;;;22.70;41.80;;;;;;6124894;23;20704;-39
2023/10/30 01:12:40;;;;;;;1.52;1.42;;;22.70;41.80;;;;;;6122195;23;20720;-38
2023/10/30 01:15:07;;;;;;;3.65;1.48;;;22.70;41.80;;;;;;6124180;23;20565;-38
2023/10/30 01:17:34;;;;;;;1.65;1.55;;;22.70;41.80;;;;;;6124347;23;20180;-39
2023/10/30 01:20:00;;;;;;;4.55;1.67;;;22.70;41.80;;;;;;6124812;23;20259;-38
2023/10/30 01:22:27;;;;;;;2.97;1.30;;;22.70;41.80;;;;;;6124535;23;20283;-38
2023/10/30 01:24:53;;;;;;;1.58;1.35;;;22.70;41.80;;;;;;6125346;23;20576;-38
2023/10/30 01:27:19;;;;;;;2.45;1.30;;;22.70;41.80;;;;;;6125318;23;20322;-37
2023/10/30 01:29:46;;;;;;;1.63;1.52;;;22.80;41.80;;;;;;6121634;23;20278;-39
2023/10/30 01:32:12;;;;;;;2.38;1.50;;;22.70;41.80;;;;;;6123580;23;20196;-38
2023/10/30 01:34:39;;;;;;;1.50;1.40;;;22.70;41.80;;;;;;6125061;23;20263;-39
2023/10/30 01:37:05;;;;;;;1.88;1.42;;;22.70;42.10;;;;;;6122692;23;20273;-37
2023/10/30 01:39:32;;;;;;;2.47;1.58;;;22.70;41.80;;;;;;6124204;23;20275;-40
2023/10/30 01:41:59;;;;;;;2.05;1.38;;;22.70;41.80;;;;;;6125031;23;20200;-38
2023/10/30 01:44:25;;;;;;;1.88;1.75;;;22.70;41.80;;;;;;6124330;23;20278;-40
2023/10/30 01:46:52;;;;;;;1.40;1.30;;;22.70;41.80;;;;;;6122295;23;20259;-39
2023/10/30 01:49:18;;;;;;;3.30;1.85;;;22.70;41.80;;;;;;6124254;23;20239;-39
2023/10/30 01:51:45;;;;;;;2.30;1.35;;;22.70;41.80;;;;;;6125605;23;20279;-37
2023/10/30 01:54:11;;;;;;;2.20;1.52;;;22.70;41.80;;;;;;6123632;23;20294;-38
2023/10/30 01:56:38;;;;;;;1.98;1.55;;;22.70;41.80;;;;;;6123866;23;20243;-37
2023/10/30 01:59:04;;;;;;;2.97;1.50;;;22.70;41.80;;;;;;6123242;23;20650;-38
2023/10/30 02:01:31;;;;;;;2.33;1.67;;;22.70;41.80;;;;;;6123162;23;20206;-38
2023/10/30 02:03:58;;;;;;;1.60;1.45;;;22.70;41.80;;;;;;6124673;23;20212;-37
2023/10/30 02:06:24;;;;;;;1.65;1.30;;;22.70;41.80;;;;;;6125208;23;20183;-38
2023/10/30 02:08:50;;;;;;;1.85;1.73;;;22.70;42.40;;;;;;6123672;23;20432;-38
2023/10/30 02:11:17;;;;;;;2.00;1.38;;;22.70;41.80;;;;;;6125582;23;20274;-37
2023/10/30 02:13:43;;;;;;;1.73;1.63;;;22.80;41.80;;;;;;6121855;23;20254;-38
2023/10/30 02:16:11;;;;;;;1.38;1.27;;;22.70;41.80;;;;;;6123396;23;20565;-37
2023/10/30 02:18:37;;;;;;;2.83;1.58;;;22.70;41.80;;;;;;6124158;23;20255;-38
2023/10/30 02:21:06;;;;;;;3.30;1.40;;;22.70;41.80;;;;;;6124921;23;20279;-38
2023/10/30 02:23:32;;;;;;;2.83;1.55;;;22.80;41.90;;;;;;6125248;23;20642;-37
2023/10/30 02:25:59;;;;;;;2.45;1.30;;;22.70;41.80;;;;;;6123554;23;20207;-38
2023/10/30 02:28:25;;;;;;;1.70;1.60;;;22.70;41.80;;;;;;6123159;23;20211;-39
2023/10/30 02:30:52;;;;;;;2.42;1.40;;;22.70;41.80;;;;;;6120436;23;20282;-38
2023/10/30 02:33:18;;;;;;;4.38;1.52;;;22.80;41.90;;;;;;6123834;23;20255;-37
2023/10/30 02:35:44;;;;;;;1.40;1.30;;;22.80;41.90;;;;;;6124285;23;20332;-38
2023/10/30 02:38:11;;;;;;;2.95;1.60;;;22.70;41.80;;;;;;6123380;23;20182;-39
2023/10/30 02:40:37;;;;;;;1.83;1.50;;;22.80;41.90;;;;;;6123800;23;20274;-38
2023/10/30 02:43:04;;;;;;;2.40;1.42;;;22.80;41.90;;;;;;6124223;23;20176;-38
2023/10/30 02:45:30;;;;;;;2.75;1.40;;;22.80;41.90;;;;;;6123559;23;20218;-39
2023/10/30 02:47:57;;;;;;;1.20;1.10;;;22.80;41.90;;;;;;6121303;23;20270;-36
2023/10/30 02:50:23;;;;;;;1.45;1.23;;;22.80;41.90;;;;;;6122947;23;20196;-38
2023/10/30 02:52:50;;;;;;;1.58;1.30;;;22.80;41.90;;;;;;6125047;23;20224;-37
2023/10/30 02:55:16;;;;;;;1.50;1.30;;;22.80;41.90;;;;;;6124450;23;20282;-37
2023/10/30 02:57:43;;;;;;;2.08;1.30;;;22.80;41.80;;;;;;6124733;23;20254;-39
2023/10/30 03:00:09;;;;;;;1.20;1.10;;;22.80;41.80;;;;;;6123059;23;20255;-38
2023/10/30 03:02:36;;;;;;;2.72;1.42;;;22.80;41.80;;;;;;6125459;23;20255;-37
2023/10/30 03:05:02;;;;;;;1.67;1.50;;;22.80;41.80;;;;;;6122208;23;20203;-38
2023/10/30 03:07:29;;;;;;;1.45;1.30;;;22.80;41.80;;;;;;6122964;23;20218;-39
2023/10/30 03:09:55;;;;;;;1.58;1.33;;;22.80;41.80;;;;;;6123931;23;20182;-39
2023/10/30 03:12:21;;;;;;;1.52;1.35;;;22.80;41.80;;;;;;6124863;23;20263;-39
2023/10/30 03:14:48;;;;;;;1.50;1.40;;;22.80;41.80;;;;;;6124224;23;20233;-38
2023/10/30 03:17:15;;;;;;;2.13;1.30;;;22.80;41.80;;;;;;6124032;23;20275;-37
2023/10/30 03:19:41;;;;;;;2.53;1.50;;;22.80;41.80;;;;;;6123636;23;20255;-39
2023/10/30 03:22:08;;;;;;;1.35;1.17;;;22.80;41.80;;;;;;6123619;23;20294;-38
2023/10/30 03:24:34;;;;;;;1.50;1.40;;;22.80;41.80;;;;;;6122367;23;20286;-38
2023/10/30 03:27:00;;;;;;;1.55;1.20;;;22.80;41.80;;;;;;6122727;23;20259;-38
2023/10/30 03:29:27;;;;;;;1.42;1.33;;;22.80;41.90;;;;;;6123468;23;20207;-38
2023/10/30 03:31:54;;;;;;;1.50;1.30;;;22.80;41.80;;;;;;6123439;23;20274;-37
2023/10/30 03:34:21;;;;;;;2.15;1.20;;;22.80;41.80;;;;;;6124096;23;20182;-38
2023/10/30 03:36:47;;;;;;;1.77;1.40;;;22.80;41.90;;;;;;6123502;23;20259;-39
2023/10/30 03:39:14;;;;;;;1.67;1.33;;;22.80;41.90;;;;;;6123251;23;20255;-37
2023/10/30 03:41:40;;;;;;;1.92;1.48;;;22.80;41.90;;;;;;6121361;23;20282;-36
2023/10/30 03:44:08;;;;;;;2.53;1.50;;;22.80;41.90;;;;;;6121807;23;20203;-39
2023/10/30 03:46:35;;;;;;;2.38;1.30;;;22.80;41.90;;;;;;6123339;23;20180;-38
2023/10/30 03:49:01;;;;;;;1.50;1.40;;;22.80;41.90;;;;;;6122024;23;20255;-38
2023/10/30 03:51:27;;;;;;;3.28;1.50;;;22.80;41.80;;;;;;6122523;23;20278;-38
2023/10/30 03:53:54;;;;;;;1.33;1.23;;;22.80;41.80;;;;;;6124337;23;20215;-37
2023/10/30 03:56:20;;;;;;;1.70;1.60;;;22.80;41.80;;;;;;6123166;23;20180;-38
2023/10/30 03:58:47;;;;;;;1.45;1.35;;;22.80;41.80;;;;;;6119746;23;20721;-38
2023/10/30 04:01:13;;;;;;;1.42;1.30;;;22.80;41.80;;;;;;6121177;23;20759;-37
2023/10/30 04:03:40;;;;;;;1.30;1.20;;;22.80;41.80;;;;;;6123747;23;20725;-37
2023/10/30 04:06:06;;;;;;;1.50;1.40;;;22.80;41.80;;;;;;6123203;23;20532;-37
2023/10/30 04:08:33;;;;;;;1.52;1.17;;;22.80;41.80;;;;;;6122559;23;20557;-37
2023/10/30 04:11:01;;;;;;;1.40;1.10;;;22.70;41.80;;;;;;6123453;23;20594;-38
2023/10/30 04:13:27;;;;;;;1.10;1.10;;;22.70;42.40;;;;;;6124067;23;20184;-37
2023/10/30 04:15:54;;;;;;;2.00;1.30;;;22.80;41.80;;;;;;6120762;23;20263;-36
2023/10/30 04:18:20;;;;;;;1.42;1.30;;;22.70;41.80;;;;;;6122385;23;20259;-36
2023/10/30 04:20:47;;;;;;;2.10;1.00;;;22.70;41.80;;;;;;6122562;23;20283;-38
2023/10/30 04:23:13;;;;;;;1.17;1.10;;;22.80;41.80;;;;;;6123554;23;20259;-38
2023/10/30 04:25:39;;;;;;;1.25;1.13;;;22.80;41.80;;;;;;6121071;23;20203;-38
2023/10/30 04:28:06;;;;;;;1.30;1.10;;;22.70;41.80;;;;;;6122013;23;20278;-38
2023/10/30 04:30:32;;;;;;;1.58;1.25;;;22.80;41.80;;;;;;6122808;23;20257;-38
2023/10/30 04:33:00;;;;;;;1.58;1.40;;;22.80;41.80;;;;;;6124429;23;20643;-37
2023/10/30 04:35:26;;;;;;;1.20;1.10;;;22.80;41.80;;;;;;6124643;23;20238;-38
2023/10/30 04:37:53;;;;;;;1.30;1.20;;;22.80;41.90;;;;;;6122825;23;20180;-38
2023/10/30 04:40:19;;;;;;;1.13;1.02;;;22.70;41.80;;;;;;6123530;23;20279;-39
2023/10/30 04:42:46;;;;;;;1.98;1.17;;;22.80;41.80;;;;;;6121665;23;20207;-39
2023/10/30 04:45:12;;;;;;;1.77;1.40;;;22.80;41.80;;;;;;6122075;23;20736;-37
2023/10/30 04:47:39;;;;;;;1.83;1.20;;;22.80;41.80;;;;;;6123537;23;20714;-40
2023/10/30 04:50:05;;;;;;;1.50;1.40;;;22.80;41.80;;;;;;6122465;23;20728;-36
2023/10/30 04:52:31;;;;;;;1.50;1.40;;;22.80;41.80;;;;;;6124410;23;20701;-39
2023/10/30 04:54:58;;;;;;;2.08;1.77;;;22.80;41.90;;;;;;6124396;23;20713;-38
2023/10/30 04:57:24;;;;;;;1.52;1.30;;;22.80;41.80;;;;;;6124426;23;20204;-39
2023/10/30 04:59:51;;;;;;;1.40;1.30;;;22.80;41.90;;;;;;6121460;23;20279;-40
2023/10/30 05:02:17;;;;;;;2.65;1.55;;;22.80;41.90;;;;;;6121974;23;20180;-40
2023/10/30 05:04:44;;;;;;;1.40;1.25;;;22.80;41.80;;;;;;6124463;23;20278;-38
2023/10/30 05:07:10;;;;;;;1.98;1.33;;;22.70;42.00;;;;;;6123963;23;20255;-39
2023/10/30 05:09:37;;;;;;;2.03;1.30;;;22.70;41.80;;;;;;6123500;23;20216;-39
2023/10/30 05:12:03;;;;;;;1.48;1.38;;;22.70;41.90;;;;;;6124862;23;20533;-39
2023/10/30 05:14:29;;;;;;;2.05;1.10;;;22.70;42.10;;;;;;6124063;23;20259;-39
2023/10/30 05:16:56;;;;;;;1.48;1.30;;;22.70;42.10;;;;;;6124382;23;20274;-38
2023/10/30 05:19:22;;;;;;;1.67;1.10;;;22.70;42.20;;;;;;6119180;23;20204;-38
2023/10/30 05:21:49;;;;;;;1.77;1.20;;;22.80;42.30;;;;;;6122101;23;20263;-32
2023/10/30 05:24:15;;;;;;;1.98;1.20;;;22.80;42.30;;;;;;6124541;23;20368;-40
2023/10/30 05:26:42;;;;;;;1.70;1.20;;;22.80;42.30;;;;;;6124300;23;20188;-35
2023/10/30 05:29:08;;;;;;;2.85;1.50;;;22.80;42.30;;;;;;6122650;23;20258;-38
2023/10/30 05:31:35;;;;;;;3.40;1.30;;;22.80;42.30;;;;;;6122275;23;20665;-36
2023/10/30 05:34:01;;;;;;;2.65;1.25;;;22.80;42.30;;;;;;6123938;23;20547;-39
2023/10/30 05:36:28;;;;;;;1.90;1.63;;;22.80;42.30;;;;;;6121712;23;20652;-37
2023/10/30 05:38:54;;;;;;;2.10;1.30;;;22.80;42.30;;;;;;6122887;23;20254;-38
2023/10/30 05:41:20;;;;;;;2.28;1.10;;;22.80;42.30;;;;;;6124206;23;20310;-36
2023/10/30 05:43:47;;;;;;;2.25;1.20;;;22.80;42.30;;;;;;6125824;23;20230;-37
2023/10/30 05:46:13;;;;;;;1.90;1.10;;;22.80;42.40;;;;;;6124667;23;20246;-36
2023/10/30 05:48:40;;;;;;;2.90;1.30;;;22.80;42.40;;;;;;6124561;23;20259;-35
2023/10/30 05:51:06;;;;;;;1.33;1.20;;;22.80;42.40;;;;;;6124554;23;20200;-37
2023/10/30 05:53:33;;;;;;;2.90;1.77;;;22.80;42.30;;;;;;6121977;23;20258;-36
2023/10/30 05:55:59;;;;;;;2.58;1.20;;;22.80;42.40;;;;;;6123871;23;20724;-38
2023/10/30 05:58:26;;;;;;;1.83;1.58;;;22.80;42.40;;;;;;6124336;23;20726;-37
2023/10/30 06:00:52;;;;;;;1.52;1.30;;;22.70;42.30;;;;;;6124654;23;20575;-37
2023/10/30 06:03:19;;;;;;;2.25;1.10;;;22.80;42.40;;;;;;6124752;23;20184;-38
2023/10/30 06:05:45;;;;;;;1.52;1.33;;;22.80;42.40;;;;;;6125276;23;20283;-38
2023/10/30 06:08:12;;;;;;;2.30;1.40;;;22.80;42.40;;;;;;6125048;23;20180;-38
2023/10/30 06:10:38;;;;;;;1.40;1.10;;;22.80;42.40;;;;;;6121574;23;20588;-37
2023/10/30 06:13:06;;;;;;;2.70;1.27;;;22.70;42.30;;;;;;6123033;23;20231;-38
2023/10/30 06:15:33;;;;;;;3.35;1.30;;;22.80;42.40;;;;;;6124582;23;20234;-37
2023/10/30 06:17:59;;;;;;;1.83;1.63;;;22.70;42.30;;;;;;6124671;23;20183;-37
2023/10/30 06:20:27;;;;;;;3.25;1.23;;;22.80;42.40;;;;;;6124456;23;20250;-38
2023/10/30 06:22:53;;;;;;;1.60;1.30;;;22.70;42.30;;;;;;6124402;23;20187;-36
2023/10/30 06:25:20;;;;;;;2.03;1.52;;;22.80;42.40;;;;;;6124541;23;20207;-40
2023/10/30 06:27:46;;;;;;;1.77;1.27;;;22.80;42.40;;;;;;6123379;23;20255;-39
2023/10/30 06:30:14;;;;;;;1.45;1.35;;;22.80;42.50;;;;;;6121907;23;20203;-37
2023/10/30 06:32:40;;;;;;;1.70;1.60;;;22.80;42.40;;;;;;6124650;23;20235;-35
2023/10/30 06:35:07;;;;;;;1.60;1.50;;;22.80;42.40;;;;;;6125542;23;20180;-37
2023/10/30 06:37:33;;;;;;;2.05;1.15;;;22.80;42.40;;;;;;6124773;23;20182;-37
2023/10/30 06:40:00;;;;;;;2.42;1.50;;;22.80;42.40;;;;;;6124024;23;20238;-39
2023/10/30 06:42:26;;;;;;;1.42;1.33;;;22.80;42.40;;;;;;6124076;23;20250;-38
2023/10/30 06:44:53;;;;;;;1.65;1.13;;;22.80;42.40;;;;;;6121794;23;20282;-38
2023/10/30 06:47:19;;;;;;;2.60;1.30;;;22.80;42.40;;;;;;6122578;23;20259;-37
2023/10/30 06:49:45;;;;;;;1.50;1.25;;;22.80;42.50;;;;;;6123991;23;20266;-39
2023/10/30 06:52:12;;;;;;;2.08;1.17;;;22.80;42.40;;;;;;6123553;23;20254;-38
2023/10/30 06:54:38;;;;;;;1.52;1.23;;;22.80;42.40;;;;;;6124599;23;20266;-37
2023/10/30 06:57:05;;;;;;;1.85;1.23;;;22.80;42.40;;;;;;6125628;23;20176;-39
2023/10/30 06:59:31;;;;;;;2.15;1.30;;;22.80;42.40;;;;;;6123842;23;20263;-33
2023/10/30 07:01:58;;;;;;;2.10;1.40;;;22.80;42.50;;;;;;6118796;23;20192;-37
2023/10/30 07:04:24;;;;;;;3.47;1.48;;;22.80;42.40;;;;;;6121053;23;20259;-39
2023/10/30 07:06:51;;;;;;;1.60;1.20;;;22.80;42.40;;;;;;6122403;23;20262;-36
2023/10/30 07:09:19;;;;;;;2.17;1.23;;;22.80;42.40;;;;;;6115918;23;20180;-38
2023/10/30 07:11:45;;;;;;;1.33;1.10;;;22.80;42.40;;;;;;6118427;23;20207;-38
2023/10/30 07:14:12;;;;;;;1.30;1.20;;;22.80;42.40;;;;;;6122575;23;20722;-38
2023/10/30 07:16:38;;;;;;;1.42;1.33;;;22.80;42.40;;;;;;6123524;23;20184;-38
2023/10/30 07:19:05;;;;;;;1.83;1.30;;;22.80;42.40;;;;;;6123434;23;20654;-40
2023/10/30 07:21:31;;;;;;;1.55;1.38;;;22.80;42.40;;;;;;6123245;23;20563;-38
2023/10/30 07:23:58;;;;;;;1.58;1.20;;;22.80;42.50;;;;;;6124111;23;20204;-39
2023/10/30 07:26:24;;;;;;;1.75;1.00;;;22.80;42.50;;;;;;6123950;23;20203;-37
2023/10/30 07:28:51;;;;;;;1.27;1.10;;;22.80;42.40;;;;;;6121068;23;20263;-34
2023/10/30 07:31:18;;;;;;;1.58;1.33;;;22.80;42.40;;;;;;6122492;23;20390;-37
2023/10/30 07:33:45;;;;;;;2.97;1.38;;;22.80;42.50;;;;;;6121135;23;20180;-37
2023/10/30 07:36:11;;;;;;;1.52;1.30;;;22.80;42.40;;;;;;6120968;23;20607;-38
2023/10/30 07:38:37;;;;;;;3.88;1.42;;;22.80;42.90;;;;;;6120637;23;20198;-36
2023/10/30 07:41:04;;;;;;;4.63;1.80;;;22.70;42.80;;;;;;6122576;23;20428;-38
2023/10/30 07:43:31;;;;;;;1.92;1.20;;;22.70;43.10;;;;;;6123968;23;20203;-39
2023/10/30 07:45:57;;;;;;;2.05;1.40;;;22.70;43.10;;;;;;6123028;23;20667;-38
2023/10/30 07:48:26;;;;;;;2.03;1.50;;;22.70;43.00;;;;;;6122487;23;20506;-36
2023/10/30 07:50:52;;;;;;;2.70;1.45;;;22.70;43.00;;;;;;6123615;23;20624;-38
2023/10/30 07:53:19;;;;;;;3.42;1.50;;;22.70;43.10;;;;;;6120320;23;20190;-39
2023/10/30 07:55:45;;;;;;;3.00;1.23;;;22.60;42.90;;;;;;6119798;23;20255;-36
2023/10/30 07:58:12;;;;;;;4.40;1.60;;;22.70;43.10;;;;;;6117276;23;20208;-37
2023/10/30 08:00:39;;;;;;;3.40;1.38;;;22.70;43.40;;;;;;6122549;23;20531;-37
2023/10/30 08:03:05;;;;;;;2.58;1.55;;;22.70;43.20;;;;;;6121244;23;20254;-40
2023/10/30 08:05:32;;;;;;;4.70;1.55;;;22.70;42.90;;;;;;6122809;23;20220;-41
2023/10/30 08:07:58;;;;;;;4.90;1.65;;;22.80;43.80;;;;;;6121887;23;20267;-41
2023/10/30 08:10:26;;;;;;;5.68;2.05;;;22.80;43.10;;;;;;6123100;23;20275;-42
2023/10/30 08:12:52;;;;;;;4.60;2.58;;;22.70;43.40;;;;;;6121330;23;20180;-40
2023/10/30 08:15:19;;;;;;;6.05;1.73;;;22.70;43.40;;;;;;6123673;23;20207;-39
2023/10/30 08:17:45;;;;;;;4.68;2.45;;;22.70;43.80;;;;;;6123670;23;20215;-37
2023/10/30 08:20:12;;;;;;;6.03;1.95;;;22.70;43.70;;;;;;6122118;23;20274;-40
2023/10/30 08:22:38;;;;;;;7.97;2.30;;;22.70;43.40;;;;;;6117504;23;20279;-39
2023/10/30 08:25:04;;;;;;;2.50;2.10;;;22.60;43.20;;;;;;6122827;23;20283;-39
2023/10/30 08:27:31;;;;;;;5.20;1.85;;;22.60;43.10;;;;;;6124477;23;20259;-39
2023/10/30 08:29:57;;;;;;;5.13;1.90;;;22.50;42.90;;;;;;6122303;23;20200;-39
2023/10/30 08:32:25;;;;;;;4.78;2.20;;;22.50;42.80;;;;;;6124292;23;20482;-40
2023/10/30 08:34:52;;;;;;;2.80;2.60;;;22.50;42.80;;;;;;6123953;23;20184;-39
2023/10/30 08:37:18;;;;;;;4.47;2.53;;;22.40;42.80;;;;;;6121584;23;20649;-41
2023/10/30 08:39:45;;;;;;;5.03;2.70;;;22.00;39.80;;;;;;6121080;23;20219;-41
2023/10/30 08:42:11;;;;;;;3.42;2.60;;;21.80;41.20;;;;;;6122655;23;20219;-40
2023/10/30 08:44:38;;;;;;;3.95;2.13;;;21.80;39.70;;;;;;6123339;23;20263;-41
2023/10/30 08:47:04;;;;;;;3.47;2.10;;;21.90;40.60;;;;;;6123931;23;20290;-40
2023/10/30 08:49:32;;;;;;;3.08;2.35;;;22.00;41.10;;;;;;6121633;23;20279;-40
2023/10/30 08:51:59;;;;;;;3.15;2.03;;;22.10;41.20;;;;;;6123812;23;20210;-39
2023/10/30 08:54:26;;;;;;;3.20;2.17;;;22.20;41.40;;;;;;6123022;23;20685;-39
2023/10/30 08:56:52;;;;;;;3.20;2.28;;;22.20;41.80;;;;;;6122719;23;20574;-40
2023/10/30 08:59:19;;;;;;;3.55;2.10;;;22.20;41.70;;;;;;6113701;23;20646;-42
2023/10/30 09:01:45;;;;;;;2.60;2.00;;;22.30;41.80;;;;;;6122023;23;20263;-42
2023/10/30 09:04:12;;;;;;;3.42;1.92;;;22.50;41.80;;;;;;6119300;23;20268;-40
2023/10/30 09:06:38;;;;;;;2.42;1.83;;;22.50;42.30;;;;;;6119458;23;20291;-43
2023/10/30 09:09:05;;;;;;;2.83;2.13;;;22.60;42.20;;;;;;6121388;23;20230;-38
2023/10/30 09:11:32;;;;;;;2.92;2.22;;;22.60;41.90;;;;;;6124119;23;20267;-41
2023/10/30 09:13:58;;;;;;;3.78;2.08;;;22.70;41.80;;;;;;6122695;23;20262;-41
2023/10/30 09:16:25;;;;;;;4.10;1.70;;;22.60;42.20;;;;;;6120508;23;20211;-43
2023/10/30 09:18:52;;;;;;;4.47;1.83;;;22.70;42.60;;;;;;6122473;23;20258;-43
2023/10/30 09:21:20;;;;;;;3.63;1.75;;;22.70;42.40;;;;;;6125759;23;20187;-42
2023/10/30 09:23:46;;;;;;;2.97;1.77;;;22.80;42.40;;;;;;6124306;23;20168;-42
2023/10/30 09:26:13;;;;;;;2.30;2.10;;;22.70;42.80;;;;;;6124134;23;20286;-42
2023/10/30 09:28:41;;;;;;;3.15;2.10;;;22.70;42.20;;;;;;6120800;23;20187;-41
2023/10/30 09:31:07;;;;;;;1.73;1.60;;;22.70;42.90;;;;;;6120526;23;20188;-42
2023/10/30 09:33:34;;;;;;;1.75;1.65;;;22.70;42.20;;;;;;6125277;23;20263;-41
2023/10/30 09:36:00;;;;;;;3.30;1.70;;;22.80;42.20;;;;;;6123204;23;20554;-42
2023/10/30 09:38:27;;;;;;;2.13;1.92;;;22.80;42.80;;;;;;6120756;23;20267;-40
2023/10/30 09:40:53;;;;;;;1.73;1.60;;;22.80;42.40;;;;;;6122919;23;20202;-41
2023/10/30 09:43:20;;;;;;;2.35;1.60;;;22.80;42.30;;;;;;6117620;23;20184;-41
2023/10/30 09:45:46;;;;;;;2.25;2.00;;;22.80;42.20;;;;;;6112024;23;20227;-42
2023/10/30 09:48:13;;;;;;;2.17;1.60;;;22.80;42.20;;;;;;6111497;23;20182;-41
2023/10/30 09:50:39;;;;;;;3.13;1.65;;;22.80;42.10;;;;;;6113760;23;20585;-40
2023/10/30 09:53:06;;;;;;;1.85;1.65;;;22.80;42.10;;;;;;6115566;23;20500;-44
2023/10/30 09:55:33;;;;;;;2.85;1.67;;;22.80;42.20;;;;;;6113651;23;20355;-41
2023/10/30 09:57:59;;;;;;;2.45;1.67;;;22.80;42.20;;;;;;6116883;23;20176;-41
2023/10/30 10:00:26;;;;;;;3.60;1.90;;;22.80;42.10;;;;;;6115548;23;20226;-36
2023/10/30 10:02:52;;;;;;;2.40;1.95;;;22.90;43.60;;;;;;6118561;23;20263;-42
2023/10/30 10:05:19;;;;;;;2.53;1.70;;;22.90;42.80;;;;;;6117738;23;20815;-41
2023/10/30 10:07:45;;;;;;;2.50;1.67;;;22.90;42.40;;;;;;6111230;23;20243;-42
2023/10/30 10:10:14;;;;;;;2.22;1.83;;;22.90;42.50;;;;;;6113030;23;20255;-36
2023/10/30 10:12:40;;;;;;;1.75;1.35;;;22.90;42.50;;;;;;6121352;23;20445;-42
2023/10/30 10:15:07;;;;;;;2.65;1.92;;;22.80;42.30;;;;;;6116670;23;20187;-39
2023/10/30 10:17:33;;;;;;;1.75;1.50;;;22.90;42.50;;;;;;6113287;23;20187;-41
2023/10/30 10:20:01;;;;;;;2.10;1.70;;;22.90;41.90;;;;;;6114568;23;20208;-41
2023/10/30 10:22:27;;;;;;;2.33;1.73;;;22.90;42.00;;;;;;6112892;23;20247;-36
2023/10/30 10:24:54;;;;;;;3.17;1.65;;;23.00;42.10;;;;;;6112405;23;20187;-43
2023/10/30 10:27:20;;;;;;;2.65;1.95;;;22.90;42.00;;;;;;6114569;23;20270;-36
2023/10/30 10:29:47;;;;;;;2.92;1.75;;;22.90;41.90;;;;;;6112131;23;20199;-30
2023/10/30 10:32:13;;;;;;;1.80;1.40;;;22.90;41.90;;;;;;6110434;23;20595;-42
2023/10/30 10:34:40;;;;;;;1.65;1.50;;;22.90;41.90;;;;;;6113295;23;20184;-41
2023/10/30 10:37:07;;;;;;;3.67;1.55;;;22.90;41.90;;;;;;6114599;23;20306;-41
2023/10/30 10:39:33;;;;;;;2.08;1.63;;;22.90;41.90;;;;;;6116013;23;20310;-38
2023/10/30 10:41:59;;;;;;;3.95;1.52;;;22.90;41.90;;;;;;6113583;23;20176;-36
2023/10/30 10:44:26;;;;;;;3.38;1.55;;;22.90;41.90;;;;;;6116605;23;20180;-41
2023/10/30 10:46:59;;;;;;;2.45;1.65;;;22.90;42.10;;;;;;6112371;23;20958;-40
2023/10/30 10:49:25;;;;;;;2.38;1.73;;;22.90;42.00;;;;;;6114988;23;20214;-41
2023/10/30 10:51:51;;;;;;;3.15;1.50;;;22.90;41.90;;;;;;6113222;23;20243;-38
2023/10/30 10:54:18;;;;;;;2.80;1.42;;;22.90;42.00;;;;;;6112641;23;20264;-39
2023/10/30 10:56:44;;;;;;;1.77;1.40;;;22.80;41.90;;;;;;6112788;23;20176;-39
2023/10/30 10:59:11;;;;;;;1.95;1.75;;;22.80;41.80;;;;;;6122171;23;20279;-41
2023/10/30 11:01:37;;;;;;;1.55;1.42;;;22.80;41.80;;;;;;6123446;23;20509;-36
2023/10/30 11:04:04;;;;;;;1.55;1.27;;;22.80;42.50;;;;;;6124094;23;20263;-37
2023/10/30 11:06:31;;;;;;;1.50;1.40;;;22.80;41.80;;;;;;6123822;23;20210;-44
2023/10/30 11:08:57;;;;;;;1.73;1.60;;;22.80;41.80;;;;;;6121967;23;20279;-41
2023/10/30 11:11:24;;;;;;;1.80;1.55;;;22.80;41.80;;;;;;6122969;23;20696;-42
2023/10/30 11:13:50;;;;;;;1.77;1.25;;;22.80;41.80;;;;;;6117432;23;20707;-42
2023/10/30 11:16:17;;;;;;;3.63;1.60;;;22.80;41.90;;;;;;6115090;23;20180;-40
2023/10/30 11:18:43;;;;;;;1.55;1.35;;;22.80;41.80;;;;;;6113770;23;20231;-44
2023/10/30 11:21:11;;;;;;;1.85;1.67;;;22.80;41.80;;;;;;6111180;23;20511;-40
2023/10/30 11:23:37;;;;;;;1.70;1.60;;;22.80;41.80;;;;;;6116794;23;20539;-39
2023/10/30 11:26:04;;;;;;;1.60;1.50;;;22.80;41.80;;;;;;6116622;23;20294;-42
2023/10/30 11:28:33;;;;;;;1.58;1.48;;;22.80;41.80;;;;;;6114864;23;20211;-37
2023/10/30 11:31:00;;;;;;;1.42;1.33;;;22.90;41.30;;;;;;6113048;23;20184;-40
2023/10/30 11:33:28;;;;;;;1.73;1.27;;;22.80;41.40;;;;;;6114147;23;20264;-40
2023/10/30 11:35:54;;;;;;;1.70;1.60;;;22.80;41.50;;;;;;6116670;23;20201;-35
2023/10/30 11:38:20;;;;;;;1.48;1.38;;;22.80;41.40;;;;;;6117407;23;20259;-38
2023/10/30 11:40:47;;;;;;;1.90;1.40;;;22.80;41.50;;;;;;6119350;23;20187;-36
2023/10/30 11:43:13;;;;;;;1.60;1.50;;;22.80;41.80;;;;;;6117917;23;20207;-38
2023/10/30 11:45:40;;;;;;;2.22;1.40;;;22.80;41.60;;;;;;6111448;23;20307;-39
2023/10/30 11:48:06;;;;;;;1.52;1.30;;;22.80;41.80;;;;;;6114645;23;20584;-38
2023/10/30 11:50:33;;;;;;;1.52;1.42;;;22.80;41.80;;;;;;6113949;23;20581;-38
2023/10/30 11:52:59;;;;;;;2.35;1.67;;;22.80;41.80;;;;;;6110929;23;20587;-39
2023/10/30 11:55:26;;;;;;;2.85;1.38;;;22.80;41.90;;;;;;6119649;23;20262;-38
2023/10/30 11:57:52;;;;;;;2.42;1.35;;;22.80;41.90;;;;;;6119408;23;20186;-39
2023/10/30 12:00:19;;;;;;;1.80;1.55;;;22.80;41.90;;;;;;6116344;23;20278;-41
2023/10/30 12:02:46;;;;;;;1.50;1.38;;;22.80;41.90;;;;;;6123151;23;20187;-38
2023/10/30 12:05:12;;;;;;;2.47;1.77;;;22.70;41.80;;;;;;6119511;23;20176;-38
2023/10/30 12:07:39;;;;;;;2.00;1.35;;;22.70;41.80;;;;;;6122576;23;20235;-40
2023/10/30 12:10:05;;;;;;;2.83;1.42;;;22.70;41.80;;;;;;6121561;23;20200;-40
2023/10/30 12:12:32;;;;;;;1.80;1.70;;;22.70;41.80;;;;;;6124287;23;20258;-39
2023/10/30 12:14:59;;;;;;;2.38;1.48;;;22.70;41.80;;;;;;6124023;23;20182;-38
2023/10/30 12:17:25;;;;;;;2.15;1.67;;;22.60;41.70;;;;;;6121905;23;20183;-44
2023/10/30 12:19:52;;;;;;;1.95;1.50;;;22.60;41.70;;;;;;6119614;23;20274;-39
2023/10/30 12:22:18;;;;;;;4.07;1.50;;;22.60;41.70;;;;;;6121654;23;20298;-38
2023/10/30 12:24:45;;;;;;;2.60;1.77;;;22.60;41.80;;;;;;6119544;23;20685;-40
2023/10/30 12:27:11;;;;;;;3.22;2.17;;;22.60;42.00;;;;;;6122069;23;20245;-38
2023/10/30 12:29:37;;;;;;;5.30;1.90;;;22.70;42.30;;;;;;6123663;23;20226;-40
2023/10/30 12:32:04;;;;;;;4.35;1.92;;;22.60;42.20;;;;;;6122923;23;20279;-42
2023/10/30 12:34:30;;;;;;;4.03;1.83;;;22.70;42.50;;;;;;6122918;23;20210;-38
2023/10/30 12:36:57;;;;;;;5.15;1.88;;;22.70;42.70;;;;;;6123997;23;20507;-40
2023/10/30 12:39:25;;;;;;;4.20;1.65;;;22.70;42.80;;;;;;6121888;23;20578;-42
2023/10/30 12:41:51;;;;;;;2.72;1.70;;;22.70;42.90;;;;;;6120557;23;20656;-43
2023/10/30 12:44:18;;;;;;;3.97;1.65;;;22.70;43.00;;;;;;6121716;23;20556;-43